createdAt,value
2017-10-20T00:01:15.385Z,52.90
2017-10-20T00:03:43.099Z,49.07
2017-10-20T00:06:10.752Z,48.30
2017-10-20T00:08:38.513Z,46.90
2017-10-20T00:11:06.163Z,49.43
2017-10-20T00:13:33.812Z,49.17
2017-10-20T00:16:01.486Z,51.37
2017-10-20T00:18:29.082Z,50.53
2017-10-20T00:20:56.772Z,49.90
2017-10-20T00:23:24.419Z,49.30
2017-10-20T00:25:52.041Z,52.03
2017-10-20T00:28:19.625Z,46.73
2017-10-20T00:30:47.312Z,48.20
2017-10-20T00:33:14.954Z,48.93
2017-10-20T00:35:42.622Z,46.50
2017-10-20T00:38:10.297Z,48.70
2017-10-20T00:40:37.994Z,46.97
2017-10-20T00:43:05.635Z,46.87
2017-10-20T00:45:33.361Z,47.30
2017-10-20T00:48:01.006Z,47.73
2017-10-20T00:50:28.692Z,47.53
2017-10-20T00:52:56.334Z,43.20
2017-10-20T00:55:24.060Z,46.63
2017-10-20T00:57:51.713Z,45.80
2017-10-20T01:00:19.432Z,43.10
2017-10-20T01:02:47.092Z,45.50
2017-10-20T01:05:14.752Z,45.10
2017-10-20T01:07:42.452Z,46.13
2017-10-20T01:10:10.119Z,45.47
2017-10-20T01:12:37.825Z,46.50
2017-10-20T01:15:05.483Z,48.60
2017-10-20T01:17:33.211Z,49.53
2017-10-20T01:20:00.923Z,46.97
2017-10-20T01:22:28.638Z,46.00
2017-10-20T01:24:56.269Z,47.40
2017-10-20T01:27:24.033Z,45.07
2017-10-20T01:29:51.684Z,47.70
2017-10-20T01:32:19.363Z,47.17
2017-10-20T01:34:47.005Z,46.67
2017-10-20T01:37:14.721Z,47.20
2017-10-20T01:39:42.363Z,47.27
2017-10-20T01:42:10.081Z,47.40
2017-10-20T01:44:37.729Z,44.20
2017-10-20T01:47:05.385Z,43.27
2017-10-20T01:49:33.078Z,46.43
2017-10-20T01:52:00.747Z,45.73
2017-10-20T01:54:28.449Z,43.80
2017-10-20T01:56:56.107Z,45.30
2017-10-20T01:59:23.791Z,44.77
2017-10-20T02:01:51.446Z,43.70
2017-10-20T02:04:19.145Z,38.67
2017-10-20T02:06:46.802Z,40.53
2017-10-20T02:09:14.484Z,41.30
2017-10-20T02:11:42.149Z,43.13
2017-10-20T02:14:09.834Z,45.77
2017-10-20T02:16:37.488Z,45.60
2017-10-20T02:19:05.170Z,43.37
2017-10-20T02:21:32.815Z,46.40
2017-10-20T02:24:00.484Z,40.70
2017-10-20T02:26:28.142Z,41.07
2017-10-20T02:28:55.810Z,39.67
2017-10-20T02:31:23.495Z,37.20
2017-10-20T02:33:51.156Z,37.20
2017-10-20T02:36:18.863Z,39.37
2017-10-20T02:38:46.565Z,38.30
2017-10-20T02:41:14.269Z,39.00
2017-10-20T02:43:41.871Z,40.47
2017-10-20T02:46:09.640Z,40.60
2017-10-20T02:48:37.307Z,42.10
2017-10-20T02:51:05.037Z,41.93
2017-10-20T02:53:32.701Z,44.90
2017-10-20T02:56:00.383Z,43.57
2017-10-20T02:58:28.046Z,41.70
2017-10-20T03:00:55.734Z,40.47
2017-10-20T03:03:23.385Z,41.27
2017-10-20T03:05:51.102Z,44.07
2017-10-20T03:08:18.762Z,44.57
2017-10-20T03:10:46.409Z,43.10
2017-10-20T03:13:14.102Z,47.83
2017-10-20T03:15:41.760Z,42.17
2017-10-20T03:18:09.442Z,43.63
2017-10-20T03:20:37.108Z,46.03
2017-10-20T03:23:04.790Z,42.10
2017-10-20T03:25:32.438Z,45.47
2017-10-20T03:28:00.137Z,40.90
2017-10-20T03:30:27.739Z,42.50
2017-10-20T03:32:55.434Z,42.67
2017-10-20T03:35:23.103Z,42.53
2017-10-20T03:37:50.842Z,40.90
2017-10-20T03:40:18.494Z,42.40
2017-10-20T03:42:46.189Z,43.23
2017-10-20T03:45:13.799Z,41.87
2017-10-20T03:47:41.466Z,42.57
2017-10-20T03:50:09.159Z,42.40
2017-10-20T03:52:36.818Z,43.93
2017-10-20T03:55:04.460Z,42.67
2017-10-20T03:57:32.118Z,43.30
2017-10-20T03:59:59.802Z,43.80
2017-10-20T04:02:27.466Z,41.30
2017-10-20T04:04:55.174Z,44.93
2017-10-20T04:07:22.865Z,44.43
2017-10-20T04:09:50.582Z,40.37
2017-10-20T04:12:18.287Z,40.40
2017-10-20T04:14:45.993Z,42.80
2017-10-20T04:17:13.674Z,41.67
2017-10-20T04:19:41.313Z,41.23
2017-10-20T04:22:08.986Z,40.60
2017-10-20T04:24:36.637Z,44.87
2017-10-20T04:27:04.367Z,41.67
2017-10-20T04:29:32.061Z,41.37
2017-10-20T04:31:59.786Z,42.50
2017-10-20T04:34:27.466Z,38.50
2017-10-20T04:36:55.184Z,39.17
2017-10-20T04:39:22.842Z,39.87
2017-10-20T04:41:50.542Z,38.93
2017-10-20T04:44:18.216Z,39.40
2017-10-20T04:46:45.900Z,41.03
2017-10-20T04:49:13.569Z,41.63
2017-10-20T04:51:42.121Z,38.50
2017-10-20T04:54:09.779Z,37.70
2017-10-20T04:56:37.478Z,41.07
2017-10-20T04:59:05.134Z,40.33
2017-10-20T05:01:32.824Z,37.47
2017-10-20T05:04:00.502Z,37.07
2017-10-20T05:06:28.261Z,38.80
2017-10-20T05:08:55.918Z,38.17
2017-10-20T05:11:23.587Z,38.70
2017-10-20T05:13:51.310Z,35.70
2017-10-20T05:16:18.917Z,34.33
2017-10-20T05:18:46.542Z,32.97
2017-10-20T05:21:14.122Z,32.80
2017-10-20T05:23:41.782Z,33.20
2017-10-20T05:26:09.375Z,33.33
2017-10-20T05:28:36.994Z,34.17
2017-10-20T05:31:04.595Z,34.63
2017-10-20T05:33:32.222Z,36.37
2017-10-20T05:35:59.822Z,33.43
2017-10-20T05:38:27.461Z,36.27
2017-10-20T05:40:55.109Z,36.90
2017-10-20T05:43:22.748Z,37.30
2017-10-20T05:45:50.360Z,36.43
2017-10-20T05:48:17.989Z,35.43
2017-10-20T05:50:45.617Z,35.73
2017-10-20T05:53:13.277Z,34.90
2017-10-20T05:55:40.858Z,34.43
2017-10-20T05:58:08.499Z,34.10
2017-10-20T06:00:36.097Z,34.03
2017-10-20T06:03:03.739Z,35.63
2017-10-20T06:05:31.342Z,37.20
2017-10-20T06:07:58.949Z,36.23
2017-10-20T06:10:26.586Z,38.67
2017-10-20T06:12:54.183Z,36.10
2017-10-20T06:15:21.814Z,34.87
2017-10-20T06:17:49.419Z,36.37
2017-10-20T06:20:17.070Z,31.93
2017-10-20T06:22:44.661Z,38.20
2017-10-20T06:25:12.299Z,36.37
2017-10-20T06:27:39.903Z,36.80
2017-10-20T06:30:07.543Z,35.67
2017-10-20T06:32:35.194Z,35.93
2017-10-20T06:35:02.840Z,35.70
2017-10-20T06:37:30.449Z,35.50
2017-10-20T06:39:58.078Z,35.30
2017-10-20T06:42:25.670Z,38.23
2017-10-20T06:44:53.310Z,36.60
2017-10-20T06:47:20.910Z,38.23
2017-10-20T06:49:48.544Z,34.17
2017-10-20T06:52:16.338Z,34.37
2017-10-20T06:54:44.030Z,35.70
2017-10-20T06:57:11.641Z,36.30
2017-10-20T06:59:39.263Z,35.13
2017-10-20T07:02:06.935Z,38.03
2017-10-20T07:04:34.543Z,32.40
2017-10-20T07:07:02.175Z,32.60
2017-10-20T07:09:29.777Z,34.37
2017-10-20T07:11:57.512Z,33.23
2017-10-20T07:14:25.113Z,34.23
2017-10-20T07:16:52.748Z,33.10
2017-10-20T07:19:25.941Z,33.90
2017-10-20T07:21:53.579Z,31.80
2017-10-20T07:24:21.186Z,33.90
2017-10-20T07:26:48.811Z,30.73
2017-10-20T07:29:16.406Z,32.30
2017-10-20T07:31:44.066Z,32.90
2017-10-20T07:34:11.703Z,33.00
2017-10-20T07:36:39.309Z,32.80
2017-10-20T07:39:06.954Z,31.60
2017-10-20T07:41:34.602Z,30.70
2017-10-20T07:44:02.221Z,30.67
2017-10-20T07:46:29.815Z,30.80
2017-10-20T07:48:57.435Z,30.20
2017-10-20T07:51:25.024Z,32.20
2017-10-20T07:53:52.874Z,31.53
2017-10-20T07:56:20.500Z,31.40
2017-10-20T07:58:48.131Z,30.90
2017-10-20T08:01:15.726Z,31.63
2017-10-20T08:03:43.370Z,30.77
2017-10-20T08:06:10.957Z,30.83
2017-10-20T08:08:38.591Z,30.63
2017-10-20T08:11:06.179Z,31.93
2017-10-20T08:13:33.798Z,29.33
2017-10-20T08:16:01.383Z,30.90
2017-10-20T08:18:28.977Z,29.90
2017-10-20T08:20:56.600Z,30.00
2017-10-20T08:23:24.205Z,29.90
2017-10-20T08:25:51.826Z,29.87
2017-10-20T08:28:19.440Z,30.17
2017-10-20T08:30:47.060Z,28.93
2017-10-20T08:33:14.642Z,29.40
2017-10-20T08:35:42.279Z,29.70
2017-10-20T08:38:09.893Z,30.70
2017-10-20T08:40:37.528Z,30.03
2017-10-20T08:43:05.119Z,30.10
2017-10-20T08:45:32.747Z,30.60
2017-10-20T08:48:00.344Z,30.50
2017-10-20T08:50:27.956Z,29.10
2017-10-20T08:52:55.535Z,30.93
2017-10-20T08:55:23.173Z,29.83
2017-10-20T08:57:50.770Z,29.90
2017-10-20T09:00:18.442Z,29.70
2017-10-20T09:02:46.056Z,28.60
2017-10-20T09:05:13.688Z,30.67
2017-10-20T09:07:41.270Z,30.60
2017-10-20T09:10:08.865Z,28.30
2017-10-20T09:12:36.494Z,29.10
2017-10-20T09:15:04.094Z,28.20
2017-10-20T09:17:31.732Z,28.27
2017-10-20T09:19:59.405Z,28.00
2017-10-20T09:22:27.048Z,27.63
2017-10-20T09:24:54.706Z,26.80
2017-10-20T09:27:22.414Z,27.07
2017-10-20T09:29:50.073Z,27.23
2017-10-20T09:32:17.795Z,28.67
2017-10-20T09:34:45.450Z,25.73
2017-10-20T09:37:13.258Z,27.40
2017-10-20T09:39:40.935Z,26.00
2017-10-20T09:42:08.561Z,25.27
2017-10-20T09:44:36.186Z,28.90
2017-10-20T09:47:03.810Z,28.80
2017-10-20T09:49:31.434Z,29.07
2017-10-20T09:51:59.066Z,26.80
2017-10-20T09:54:26.658Z,27.97
2017-10-20T09:56:54.296Z,27.10
2017-10-20T09:59:21.933Z,26.23
2017-10-20T10:01:49.659Z,29.93
2017-10-20T10:04:17.254Z,27.93
2017-10-20T10:06:44.849Z,30.30
2017-10-20T10:09:12.473Z,28.33
2017-10-20T10:11:40.066Z,26.77
2017-10-20T10:14:07.704Z,24.90
2017-10-20T10:16:35.290Z,24.80
2017-10-20T10:19:02.912Z,24.60
2017-10-20T10:21:30.518Z,25.20
2017-10-20T10:23:58.138Z,24.73
2017-10-20T10:26:25.718Z,24.90
2017-10-20T10:28:53.358Z,25.80
2017-10-20T10:31:20.952Z,24.70
2017-10-20T10:33:48.594Z,25.40
2017-10-20T10:36:16.211Z,23.60
2017-10-20T10:38:43.861Z,24.77
2017-10-20T10:41:11.449Z,22.30
2017-10-20T10:43:39.079Z,23.27
2017-10-20T10:46:06.686Z,23.57
2017-10-20T10:48:34.285Z,23.03
2017-10-20T10:51:01.997Z,23.00
2017-10-20T10:53:29.588Z,24.40
2017-10-20T10:55:57.241Z,24.43
2017-10-20T10:58:24.835Z,24.43
2017-10-20T11:00:52.474Z,24.37
2017-10-20T11:03:20.086Z,23.83
2017-10-20T11:05:59.398Z,23.40
2017-10-20T11:08:38.755Z,23.70
2017-10-20T11:11:18.130Z,24.20
2017-10-20T11:13:45.754Z,23.30
2017-10-20T11:16:13.391Z,22.50
2017-10-20T11:18:40.993Z,23.43
2017-10-20T11:21:08.632Z,23.60
2017-10-20T11:23:36.223Z,24.33
2017-10-20T11:26:03.879Z,22.47
2017-10-20T11:28:31.493Z,24.47
2017-10-20T11:30:59.123Z,25.20
2017-10-20T11:33:26.706Z,24.23
2017-10-20T11:35:54.333Z,24.60
2017-10-20T11:38:21.939Z,23.63
2017-10-20T11:40:49.573Z,24.67
2017-10-20T11:43:17.173Z,24.50
2017-10-20T11:45:44.771Z,24.20
2017-10-20T11:48:12.397Z,24.47
2017-10-20T11:50:40.004Z,25.23
2017-10-20T11:53:07.636Z,24.37
2017-10-20T11:55:35.222Z,25.70
2017-10-20T11:58:02.875Z,27.27
2017-10-20T12:00:30.486Z,25.40
2017-10-20T12:02:58.124Z,26.90
2017-10-20T12:05:25.709Z,29.00
2017-10-20T12:07:53.333Z,28.00
2017-10-20T12:10:20.933Z,28.13
2017-10-20T12:12:48.551Z,27.07
2017-10-20T12:15:16.144Z,27.20
2017-10-20T12:17:43.774Z,26.37
2017-10-20T12:20:11.372Z,25.30
2017-10-20T12:22:39.006Z,27.30
2017-10-20T12:25:06.663Z,27.67
2017-10-20T12:27:34.275Z,26.80
2017-10-20T12:30:01.894Z,26.90
2017-10-20T12:32:29.498Z,25.67
2017-10-20T12:34:57.141Z,26.13
2017-10-20T12:37:31.595Z,26.83
2017-10-20T12:39:59.238Z,26.97
2017-10-20T12:42:26.861Z,25.77
2017-10-20T12:44:54.475Z,26.23
2017-10-20T12:47:22.143Z,27.37
2017-10-20T12:49:49.858Z,26.90
2017-10-20T12:52:17.571Z,25.60
2017-10-20T12:54:45.316Z,27.60
2017-10-20T12:57:13.006Z,26.43
2017-10-20T12:59:40.642Z,26.50
2017-10-20T13:02:08.263Z,25.97
2017-10-20T13:04:35.994Z,28.07
2017-10-20T13:07:03.651Z,24.03
2017-10-20T13:09:31.295Z,26.63
2017-10-20T13:11:58.904Z,27.40
2017-10-20T13:14:26.597Z,26.60
2017-10-20T13:16:54.250Z,25.60
2017-10-20T13:19:21.960Z,28.10
2017-10-20T13:21:49.684Z,26.13
2017-10-20T13:24:17.290Z,24.97
2017-10-20T13:26:45.015Z,26.97
2017-10-20T13:29:12.613Z,26.20
2017-10-20T13:31:40.247Z,26.60
2017-10-20T13:34:07.920Z,27.40
2017-10-20T13:36:35.625Z,26.50
2017-10-20T13:39:03.383Z,24.93
2017-10-20T13:41:31.071Z,26.33
2017-10-20T13:43:58.655Z,25.70
2017-10-20T13:46:26.271Z,25.63
2017-10-20T13:48:53.922Z,25.43
2017-10-20T13:51:22.625Z,26.23
2017-10-20T13:53:50.275Z,26.17
2017-10-20T13:56:17.931Z,26.07
2017-10-20T13:58:45.661Z,25.70
2017-10-20T14:01:13.367Z,25.97
2017-10-20T14:03:41.109Z,27.30
2017-10-20T14:06:08.802Z,26.13
2017-10-20T14:08:36.498Z,26.77
2017-10-20T14:11:04.152Z,27.90
2017-10-20T14:13:31.848Z,26.57
2017-10-20T14:15:59.535Z,27.10
2017-10-20T14:18:27.231Z,27.33
2017-10-20T14:20:54.899Z,29.83
2017-10-20T14:23:22.598Z,30.83
2017-10-20T14:25:50.263Z,29.80
2017-10-20T14:28:17.974Z,28.90
2017-10-20T14:30:45.646Z,31.13
2017-10-20T14:33:13.359Z,30.30
2017-10-20T14:35:41.022Z,30.47
2017-10-20T14:38:08.797Z,29.73
2017-10-20T14:40:36.467Z,30.67
2017-10-20T14:43:04.122Z,29.63
2017-10-20T14:45:31.856Z,30.43
2017-10-20T14:47:59.481Z,30.47
2017-10-20T14:50:27.185Z,33.00
2017-10-20T14:52:54.845Z,32.40
2017-10-20T14:55:22.550Z,31.73
2017-10-20T14:57:50.161Z,32.50
2017-10-20T15:00:17.847Z,33.47
2017-10-20T15:02:45.520Z,32.57
2017-10-20T15:05:13.230Z,34.30
2017-10-20T15:07:40.891Z,33.90
2017-10-20T15:10:08.528Z,33.10
2017-10-20T15:12:36.177Z,33.90
2017-10-20T15:15:03.889Z,33.70
2017-10-20T15:17:31.545Z,34.63
2017-10-20T15:19:59.236Z,35.53
2017-10-20T15:22:26.885Z,33.93
2017-10-20T15:24:54.570Z,34.87
2017-10-20T15:27:22.175Z,33.60
2017-10-20T15:29:49.822Z,34.27
2017-10-20T15:32:17.514Z,34.33
2017-10-20T15:34:45.161Z,35.80
2017-10-20T15:37:12.911Z,37.93
2017-10-20T15:39:40.590Z,36.63
2017-10-20T15:42:08.277Z,42.07
2017-10-20T15:44:35.939Z,46.47
2017-10-20T15:47:03.641Z,49.30
2017-10-20T15:49:31.339Z,45.80
2017-10-20T15:51:59.079Z,52.37
2017-10-20T15:54:26.757Z,48.10
2017-10-20T15:56:54.482Z,47.17
2017-10-20T15:59:22.115Z,42.10
2017-10-20T16:01:49.743Z,41.20
2017-10-20T16:04:17.334Z,37.47
2017-10-20T16:06:45.010Z,40.50
2017-10-20T16:09:12.614Z,38.87
2017-10-20T16:11:40.286Z,40.57
2017-10-20T16:14:07.904Z,38.87
2017-10-20T16:16:35.503Z,37.83
2017-10-20T16:19:03.152Z,37.43
2017-10-20T16:21:30.743Z,34.77
2017-10-20T16:23:58.374Z,35.90
2017-10-20T16:26:25.966Z,36.00
2017-10-20T16:28:53.596Z,37.83
2017-10-20T16:31:21.178Z,35.20
2017-10-20T16:33:48.806Z,34.67
2017-10-20T16:36:16.453Z,38.20
2017-10-20T16:38:44.132Z,38.13
2017-10-20T16:41:11.765Z,38.07
2017-10-20T16:43:39.418Z,37.10
2017-10-20T16:46:07.055Z,37.43
2017-10-20T16:48:34.688Z,39.23
2017-10-20T16:51:02.325Z,44.63
2017-10-20T16:53:29.960Z,44.57
2017-10-20T16:55:57.617Z,44.83
2017-10-20T16:58:25.274Z,31.47
2017-10-20T17:00:52.915Z,32.20
2017-10-20T17:03:20.598Z,26.17
2017-10-20T17:05:48.239Z,35.53
2017-10-20T17:08:15.898Z,17.30
2017-10-20T17:10:43.610Z,33.50
2017-10-20T17:13:11.284Z,20.70
2017-10-20T17:15:38.996Z,19.30
2017-10-20T17:18:06.647Z,29.23
2017-10-20T17:20:34.335Z,20.60
2017-10-20T17:23:01.931Z,15.50
2017-10-20T17:25:29.617Z,11.50
2017-10-20T17:27:57.282Z,11.73
2017-10-20T17:30:24.974Z,10.97
2017-10-20T17:32:52.552Z,10.53
2017-10-20T17:35:20.189Z,15.70
2017-10-20T17:37:47.881Z,10.23
2017-10-20T17:40:15.573Z,11.90
2017-10-20T17:42:43.183Z,14.90
2017-10-20T17:45:10.884Z,16.97
2017-10-20T17:47:38.534Z,15.37
2017-10-20T17:50:06.295Z,15.97
2017-10-20T17:52:33.987Z,16.67
2017-10-20T17:55:01.653Z,17.17
2017-10-20T17:57:29.341Z,17.13
2017-10-20T17:59:56.967Z,15.23
2017-10-20T18:02:24.601Z,14.40
2017-10-20T18:04:52.198Z,14.33
2017-10-20T18:07:19.817Z,13.87
2017-10-20T18:09:47.438Z,14.17
2017-10-20T18:12:15.092Z,14.47
2017-10-20T18:14:42.696Z,13.33
2017-10-20T18:17:10.325Z,12.70
2017-10-20T18:19:37.913Z,13.00
2017-10-20T18:22:05.509Z,12.30
2017-10-20T18:24:33.159Z,13.30
2017-10-20T18:27:00.751Z,12.30
2017-10-20T18:29:28.397Z,11.80
2017-10-20T18:31:55.990Z,12.80
2017-10-20T18:34:23.637Z,11.50
2017-10-20T18:36:51.235Z,13.53
2017-10-20T18:39:18.874Z,12.60
2017-10-20T18:41:46.462Z,12.57
2017-10-20T18:44:14.089Z,12.97
2017-10-20T18:46:41.693Z,12.00
2017-10-20T18:49:09.341Z,12.40
2017-10-20T18:51:36.937Z,11.53
2017-10-20T18:54:04.577Z,12.67
2017-10-20T18:56:32.203Z,13.37
2017-10-20T18:58:59.853Z,13.70
2017-10-20T19:01:27.465Z,15.47
2017-10-20T19:03:55.107Z,16.30
2017-10-20T19:06:22.801Z,16.67
2017-10-20T19:08:50.407Z,17.53
2017-10-20T19:11:18.030Z,17.80
2017-10-20T19:13:45.627Z,17.77
2017-10-20T19:16:13.274Z,19.90
2017-10-20T19:18:40.863Z,20.40
2017-10-20T19:21:08.492Z,21.87
2017-10-20T19:23:36.098Z,23.10
2017-10-20T19:26:03.741Z,19.87
2017-10-20T19:28:31.394Z,19.50
2017-10-20T19:30:59.090Z,17.40
2017-10-20T19:33:26.766Z,16.83
2017-10-20T19:35:54.481Z,18.27
2017-10-20T19:38:22.074Z,17.93
2017-10-20T19:40:49.753Z,19.10
2017-10-20T19:43:17.354Z,18.00
2017-10-20T19:45:45.001Z,17.83
2017-10-20T19:48:12.924Z,18.47
2017-10-20T19:50:40.528Z,20.80
2017-10-20T19:53:08.239Z,19.53
2017-10-20T19:55:35.836Z,18.87
2017-10-20T19:58:03.467Z,20.70
2017-10-20T20:00:31.106Z,21.07
2017-10-20T20:02:58.829Z,21.73
2017-10-20T20:05:26.487Z,20.13
2017-10-20T20:07:54.117Z,18.57
2017-10-20T20:10:21.749Z,18.57
2017-10-20T20:12:49.384Z,19.67
2017-10-20T20:15:17.031Z,20.27
2017-10-20T20:17:44.685Z,21.30
2017-10-20T20:20:12.316Z,20.93
2017-10-20T20:22:39.958Z,21.77
2017-10-20T20:25:07.622Z,23.87
2017-10-20T20:27:35.527Z,21.10
2017-10-20T20:30:03.227Z,20.90
2017-10-20T20:32:31.264Z,19.07
2017-10-20T20:34:58.874Z,17.90
2017-10-20T20:37:26.497Z,16.87
2017-10-20T20:39:54.136Z,16.10
2017-10-20T20:42:21.743Z,17.43
2017-10-20T20:44:49.375Z,15.23
2017-10-20T20:47:16.963Z,15.43
2017-10-20T20:49:44.607Z,14.10
2017-10-20T20:52:12.273Z,14.20
2017-10-20T20:54:39.984Z,13.73
2017-10-20T20:57:07.661Z,13.00
2017-10-20T20:59:35.364Z,14.30
2017-10-20T21:02:03.013Z,12.87
2017-10-20T21:04:30.717Z,13.23
2017-10-20T21:06:58.393Z,13.67
2017-10-20T21:09:26.087Z,13.57
2017-10-20T21:11:53.753Z,14.53
2017-10-20T21:14:21.405Z,16.10
2017-10-20T21:16:49.116Z,15.37
2017-10-20T21:19:16.787Z,15.40
2017-10-20T21:21:44.482Z,14.60
2017-10-20T21:24:12.075Z,12.43
2017-10-20T21:26:39.773Z,10.70
2017-10-20T21:29:07.441Z,10.40
2017-10-20T21:31:36.143Z,9.50
2017-10-20T21:34:03.794Z,9.10
2017-10-20T21:36:31.487Z,8.30
2017-10-20T21:38:59.193Z,8.90
2017-10-20T21:41:26.891Z,8.43
2017-10-20T21:43:54.551Z,8.33
2017-10-20T21:46:22.255Z,8.17
2017-10-20T21:48:49.926Z,8.50
2017-10-20T21:51:17.636Z,8.13
2017-10-20T21:53:45.295Z,7.87
2017-10-20T21:56:12.978Z,7.37
2017-10-20T21:58:40.618Z,7.53
2017-10-20T22:01:08.331Z,8.27
2017-10-20T22:03:35.967Z,7.30
2017-10-20T22:06:03.617Z,7.30
2017-10-20T22:08:31.310Z,7.53
2017-10-20T22:10:58.961Z,6.37
2017-10-20T22:13:26.664Z,6.80
2017-10-20T22:15:54.302Z,6.10
2017-10-20T22:18:21.938Z,6.47
2017-10-20T22:20:49.593Z,7.13
2017-10-20T22:23:17.276Z,7.23
2017-10-20T22:25:44.940Z,6.80
2017-10-20T22:28:12.629Z,6.30
2017-10-20T22:30:40.271Z,6.53
2017-10-20T22:33:07.966Z,6.60
2017-10-20T22:35:35.558Z,6.70
2017-10-20T22:38:03.277Z,6.80
2017-10-20T22:40:30.923Z,6.43
2017-10-20T22:42:58.598Z,6.30
2017-10-20T22:45:26.256Z,6.33
2017-10-20T22:47:53.941Z,6.30
2017-10-20T22:50:21.590Z,6.70
2017-10-20T22:52:49.175Z,6.90
2017-10-20T22:55:16.806Z,6.50
2017-10-20T22:57:44.460Z,6.97
2017-10-20T23:00:12.163Z,6.63
2017-10-20T23:02:39.825Z,6.67
2017-10-20T23:05:07.465Z,5.87
2017-10-20T23:07:35.111Z,6.30
2017-10-20T23:10:02.816Z,6.90
2017-10-20T23:12:30.475Z,6.17
2017-10-20T23:14:58.163Z,7.30
2017-10-20T23:17:25.838Z,6.40
2017-10-20T23:19:53.551Z,7.03
2017-10-20T23:22:21.190Z,5.93
2017-10-20T23:24:49.784Z,6.63
2017-10-20T23:27:17.417Z,6.97
2017-10-20T23:29:45.058Z,7.00
2017-10-20T23:32:12.758Z,7.20
2017-10-20T23:34:40.411Z,6.83
2017-10-20T23:37:08.134Z,7.10
2017-10-20T23:39:35.782Z,6.67
2017-10-20T23:42:03.462Z,6.70
2017-10-20T23:44:31.134Z,7.57
2017-10-20T23:46:58.823Z,7.20
2017-10-20T23:49:26.464Z,7.10
2017-10-20T23:51:54.139Z,6.77
2017-10-20T23:54:21.758Z,6.33
2017-10-20T23:56:49.442Z,6.47
2017-10-20T23:59:17.092Z,7.40
